Aviation Digital Data Service (ADDS)

Output produced by METARs form (0400 UTC 07 June 2020)
found at http://aviationweather.gov/metar/data/
 
METAR text: KJOT 070355Z AUTO 05006KT 10SM CLR 17/10 A3009 RMK AO2 T01700098
Conditions at: KJOT (JOLIET , IL, US) observed 0355 UTC 07 June 2020
Temperature: 17.0°C (63°F)
Dewpoint: 9.8°C (50°F) [RH = 63%]
Pressure (altimeter): 30.09 inches Hg (1019.0 mb)
Winds: from the NE (50 degrees) at 7 MPH (6 knots; 3.1 m/s)
Visibility: 10 or more miles (16+ km)
Ceiling: at least 12,000 feet AGL
Clouds: sky clear below 12,000 feet AGL
Weather: automated observation with no human augmentation;
there may or may not be significant weather present at this time